createdAt,value
2022-11-29T00:01:37.511Z,27.33
2022-11-29T00:04:05.056Z,20.90
2022-11-29T00:06:34.683Z,20.50
2022-11-29T00:09:09.758Z,18.58
2022-11-29T00:11:59.082Z,21.05
2022-11-29T00:14:27.569Z,25.13
2022-11-29T00:17:04.424Z,22.33
2022-11-29T00:19:35.845Z,23.33
2022-11-29T00:22:05.633Z,24.05
2022-11-29T00:27:04.206Z,20.52
2022-11-29T00:29:33.140Z,23.60
2022-11-29T00:32:00.287Z,24.48
2022-11-29T00:34:27.231Z,27.42
2022-11-29T00:36:53.902Z,26.98
2022-11-29T00:39:20.583Z,25.23
2022-11-29T00:41:47.319Z,23.10
2022-11-29T00:44:19.610Z,23.63
2022-11-29T00:46:47.414Z,25.67
2022-11-29T00:49:14.110Z,21.60
2022-11-29T00:51:40.765Z,24.92
2022-11-29T00:54:07.531Z,24.98
2022-11-29T00:56:34.145Z,19.70
2022-11-29T00:59:02.585Z,25.00
2022-11-29T01:01:29.550Z,24.13
2022-11-29T01:03:56.311Z,19.50
2022-11-29T01:06:23.162Z,23.27
2022-11-29T01:08:50.660Z,18.02
2022-11-29T01:11:27.269Z,24.90
2022-11-29T01:13:59.875Z,21.00
2022-11-29T01:16:28.444Z,21.83
2022-11-29T01:18:56.122Z,19.73
2022-11-29T01:21:24.646Z,20.55
2022-11-29T01:23:53.447Z,21.52
2022-11-29T01:26:24.209Z,19.55
2022-11-29T01:28:54.568Z,21.02
2022-11-29T01:31:39.332Z,23.13
2022-11-29T01:34:07.215Z,20.75
2022-11-29T01:36:39.397Z,24.15
2022-11-29T01:39:06.870Z,23.08
2022-11-29T01:41:35.549Z,19.75
2022-11-29T01:44:07.009Z,24.90
2022-11-29T01:46:37.243Z,31.48
2022-11-29T01:49:17.561Z,21.33
2022-11-29T01:51:58.119Z,24.63
2022-11-29T01:54:26.236Z,24.83
2022-11-29T01:56:53.188Z,22.63
2022-11-29T01:59:23.444Z,22.63
2022-11-29T02:01:53.056Z,18.58
2022-11-29T02:04:20.184Z,23.13
2022-11-29T02:06:46.896Z,20.50
2022-11-29T02:09:19.402Z,19.75
2022-11-29T02:12:29.924Z,20.08
2022-11-29T02:15:15.435Z,21.65
2022-11-29T02:18:04.814Z,20.17
2022-11-29T02:20:40.495Z,21.02
2022-11-29T02:23:10.001Z,21.38
2022-11-29T02:26:14.933Z,23.65
2022-11-29T02:29:12.636Z,23.48
2022-11-29T02:32:20.696Z,23.73
2022-11-29T02:35:11.895Z,22.83
2022-11-29T02:38:06.017Z,24.15
2022-11-29T02:41:01.068Z,24.40
2022-11-29T02:43:38.371Z,23.88
2022-11-29T02:46:32.650Z,20.88
2022-11-29T02:49:34.718Z,21.95
2022-11-29T02:52:38.728Z,21.27
2022-11-29T02:55:13.371Z,21.10
2022-11-29T02:57:55.524Z,19.60
2022-11-29T03:00:23.727Z,27.17
2022-11-29T03:03:05.934Z,27.77
2022-11-29T03:05:51.445Z,26.77
2022-11-29T03:08:30.523Z,26.95
2022-11-29T03:11:03.050Z,27.05
2022-11-29T03:13:36.617Z,30.40
2022-11-29T03:16:41.443Z,28.20
2022-11-29T03:19:31.410Z,24.55
2022-11-29T03:22:20.844Z,25.33
2022-11-29T03:24:54.870Z,28.45
2022-11-29T03:27:29.389Z,30.92
2022-11-29T03:30:02.810Z,29.17
2022-11-29T03:32:45.205Z,30.15
2022-11-29T03:35:20.779Z,31.60
2022-11-29T03:38:01.568Z,29.52
2022-11-29T03:40:50.307Z,32.60
2022-11-29T03:43:23.532Z,30.58
2022-11-29T03:46:05.091Z,21.73
2022-11-29T03:48:43.719Z,30.08
2022-11-29T03:51:20.057Z,33.30
2022-11-29T03:53:52.783Z,29.67
2022-11-29T03:56:25.762Z,30.60
2022-11-29T03:59:05.993Z,34.80
2022-11-29T04:01:56.806Z,34.00
2022-11-29T04:04:47.292Z,30.92
2022-11-29T04:07:20.189Z,32.55
2022-11-29T04:09:59.846Z,30.08
2022-11-29T04:12:51.115Z,30.95
2022-11-29T04:16:18.595Z,29.35
2022-11-29T04:19:19.638Z,32.47
2022-11-29T04:22:21.874Z,29.83
2022-11-29T04:25:03.772Z,29.15
2022-11-29T04:27:41.796Z,26.63
2022-11-29T04:30:19.927Z,29.88
2022-11-29T04:33:13.893Z,26.45
2022-11-29T04:36:11.563Z,25.40
2022-11-29T04:38:49.310Z,26.13
2022-11-29T04:41:40.251Z,25.05
2022-11-29T04:44:22.494Z,28.38
2022-11-29T04:47:26.841Z,25.70
2022-11-29T04:50:15.682Z,26.70
2022-11-29T04:52:48.427Z,26.83
2022-11-29T04:55:37.239Z,24.95
2022-11-29T04:58:20.071Z,27.00
2022-11-29T05:01:31.666Z,26.50
2022-11-29T05:04:19.563Z,26.73
2022-11-29T05:06:57.865Z,29.30
2022-11-29T05:10:01.192Z,25.20
2022-11-29T05:12:55.397Z,29.30
2022-11-29T05:15:44.098Z,28.27
2022-11-29T05:18:22.119Z,28.50
2022-11-29T05:20:59.280Z,28.33
2022-11-29T05:23:39.453Z,27.38
2022-11-29T05:26:23.024Z,25.80
2022-11-29T05:28:58.983Z,26.63
2022-11-29T05:32:04.609Z,22.92
2022-11-29T05:34:53.946Z,26.27
2022-11-29T05:38:05.166Z,26.77
2022-11-29T05:41:06.890Z,26.58
2022-11-29T05:43:36.362Z,24.85
2022-11-29T05:46:31.092Z,25.55
2022-11-29T05:49:27.849Z,22.67
2022-11-29T05:52:03.363Z,24.95
2022-11-29T05:54:37.277Z,20.40
2022-11-29T05:57:22.457Z,21.42
2022-11-29T05:59:51.145Z,22.95
2022-11-29T06:02:29.256Z,18.17
2022-11-29T06:05:06.821Z,17.67
2022-11-29T06:07:52.167Z,23.80
2022-11-29T06:10:21.388Z,16.60
2022-11-29T06:13:18.324Z,18.30
2022-11-29T06:16:16.679Z,19.75
2022-11-29T06:18:46.392Z,17.50
2022-11-29T06:21:40.492Z,19.00
2022-11-29T06:24:36.674Z,24.05
2022-11-29T06:27:24.383Z,23.17
2022-11-29T06:30:07.083Z,27.67
2022-11-29T06:32:50.495Z,30.73
2022-11-29T06:35:38.476Z,29.60
2022-11-29T06:38:31.725Z,33.95
2022-11-29T06:41:02.130Z,31.58
2022-11-29T06:43:31.027Z,26.73
2022-11-29T06:46:24.438Z,28.17
2022-11-29T06:49:02.527Z,25.92
2022-11-29T06:51:42.319Z,24.15
2022-11-29T06:54:22.670Z,23.23
2022-11-29T06:56:59.362Z,27.83
2022-11-29T06:59:31.977Z,36.90
2022-11-29T07:02:34.139Z,27.85
2022-11-29T07:05:13.814Z,20.75
2022-11-29T07:07:41.806Z,23.83
2022-11-29T07:10:19.671Z,26.52
2022-11-29T07:12:49.203Z,26.52
2022-11-29T07:15:19.461Z,23.55
2022-11-29T07:18:08.519Z,20.50
2022-11-29T07:21:00.434Z,23.17
2022-11-29T07:23:36.202Z,20.63
2022-11-29T07:26:22.777Z,19.13
2022-11-29T07:29:10.584Z,25.65
2022-11-29T07:32:02.201Z,18.95
2022-11-29T07:34:35.614Z,24.15
2022-11-29T07:37:11.579Z,20.30
2022-11-29T07:39:56.622Z,19.48
2022-11-29T07:42:36.796Z,19.17
2022-11-29T07:45:22.414Z,15.55
2022-11-29T07:47:50.202Z,11.65
2022-11-29T07:50:17.436Z,12.23
2022-11-29T07:52:44.150Z,18.40
2022-11-29T07:55:18.886Z,14.48
2022-11-29T07:57:46.897Z,14.18
2022-11-29T08:00:17.123Z,15.02
2022-11-29T08:02:44.095Z,16.85
2022-11-29T08:05:11.126Z,12.93
2022-11-29T08:07:39.918Z,13.02
2022-11-29T08:10:15.196Z,14.27
2022-11-29T08:12:44.471Z,17.15
2022-11-29T08:15:14.314Z,12.65
2022-11-29T08:20:17.424Z,16.15
2022-11-29T08:22:44.560Z,15.20
2022-11-29T08:25:12.467Z,13.68
2022-11-29T08:27:39.332Z,13.27
2022-11-29T08:30:07.066Z,13.20
2022-11-29T08:32:34.315Z,10.85
2022-11-29T08:35:00.889Z,17.05
2022-11-29T08:37:27.458Z,11.80
2022-11-29T08:39:55.296Z,12.38
2022-11-29T08:42:22.115Z,11.20
2022-11-29T08:44:48.936Z,12.70
2022-11-29T08:47:34.160Z,11.27
2022-11-29T08:50:03.841Z,11.93
2022-11-29T08:55:19.880Z,13.27
2022-11-29T08:57:47.466Z,10.57
2022-11-29T09:00:14.766Z,11.88
2022-11-29T09:02:41.483Z,12.23
2022-11-29T09:05:09.297Z,12.10
2022-11-29T09:07:36.385Z,12.43
2022-11-29T09:10:05.960Z,14.30
2022-11-29T09:12:32.808Z,13.20
2022-11-29T09:15:04.254Z,14.40
2022-11-29T09:17:31.146Z,15.88
2022-11-29T09:19:57.763Z,15.52
2022-11-29T09:22:24.391Z,15.60
2022-11-29T09:24:50.916Z,17.38
2022-11-29T09:27:17.797Z,15.18
2022-11-29T09:29:46.653Z,14.10
2022-11-29T09:32:13.291Z,18.37
2022-11-29T09:34:42.255Z,19.40
2022-11-29T09:37:09.093Z,13.93
2022-11-29T09:39:35.819Z,17.88
2022-11-29T09:42:09.601Z,15.48
2022-11-29T09:44:59.392Z,15.90
2022-11-29T09:47:57.967Z,17.20
2022-11-29T09:51:12.371Z,14.32
2022-11-29T09:54:24.267Z,17.05
2022-11-29T09:56:52.666Z,17.98
2022-11-29T09:59:47.902Z,19.75
2022-11-29T10:02:24.678Z,22.10
2022-11-29T10:05:01.661Z,30.58
2022-11-29T10:07:37.839Z,21.70
2022-11-29T10:10:17.020Z,21.20
2022-11-29T10:12:52.372Z,22.67
2022-11-29T10:15:53.627Z,21.55
2022-11-29T10:18:29.918Z,21.45
2022-11-29T10:21:02.471Z,19.45
2022-11-29T10:23:53.082Z,22.77
2022-11-29T10:26:20.790Z,21.52
2022-11-29T10:28:49.450Z,21.90
2022-11-29T10:31:43.318Z,22.10
2022-11-29T10:34:19.984Z,22.10
2022-11-29T10:37:02.707Z,23.17
2022-11-29T10:39:43.811Z,22.52
2022-11-29T10:42:40.532Z,22.63
2022-11-29T10:45:31.380Z,24.92
2022-11-29T10:48:06.588Z,27.83
2022-11-29T10:50:36.497Z,25.58
2022-11-29T10:53:10.532Z,28.83
2022-11-29T10:55:46.921Z,27.20
2022-11-29T10:58:28.304Z,26.83
2022-11-29T11:01:07.368Z,27.77
2022-11-29T11:03:35.929Z,25.05
2022-11-29T11:06:16.401Z,26.80
2022-11-29T11:08:49.818Z,23.83
2022-11-29T11:11:33.481Z,23.95
2022-11-29T11:14:17.009Z,22.48
2022-11-29T11:16:43.789Z,21.83
2022-11-29T11:19:32.045Z,24.58
2022-11-29T11:22:00.966Z,23.45
2022-11-29T11:24:33.150Z,19.77
2022-11-29T11:27:00.558Z,23.38
2022-11-29T11:29:39.776Z,21.80
2022-11-29T11:32:16.640Z,21.75
2022-11-29T11:34:53.823Z,22.23
2022-11-29T11:37:35.763Z,22.77
2022-11-29T11:40:29.504Z,29.60
2022-11-29T11:43:02.008Z,20.55
2022-11-29T11:45:35.072Z,21.65
2022-11-29T11:48:14.346Z,20.95
2022-11-29T11:50:45.171Z,23.25
2022-11-29T11:53:37.674Z,17.00
2022-11-29T11:56:10.181Z,25.65
2022-11-29T11:58:55.449Z,20.92
2022-11-29T12:01:38.223Z,21.95
2022-11-29T12:04:07.941Z,23.42
2022-11-29T12:09:36.815Z,21.38
2022-11-29T12:12:13.455Z,24.02
2022-11-29T12:14:48.386Z,19.80
2022-11-29T12:17:21.371Z,22.08
2022-11-29T12:20:14.192Z,28.08
2022-11-29T12:23:00.480Z,31.52
2022-11-29T12:25:34.542Z,23.58
2022-11-29T12:28:01.408Z,22.42
2022-11-29T12:30:28.204Z,25.40
2022-11-29T12:32:57.860Z,25.92
2022-11-29T12:35:35.085Z,22.77
2022-11-29T12:38:16.523Z,26.23
2022-11-29T12:40:49.055Z,27.88
2022-11-29T12:43:28.364Z,26.08
2022-11-29T12:46:04.408Z,29.45
2022-11-29T12:48:31.190Z,28.05
2022-11-29T12:51:03.968Z,33.67
2022-11-29T12:53:30.557Z,28.98
2022-11-29T12:56:10.971Z,26.67
2022-11-29T12:59:00.598Z,33.15
2022-11-29T13:01:51.299Z,28.98
2022-11-29T13:04:44.595Z,34.38
2022-11-29T13:07:34.854Z,32.38
2022-11-29T13:10:18.305Z,33.67
2022-11-29T13:13:32.715Z,28.70
2022-11-29T13:16:30.672Z,34.17
2022-11-29T13:19:02.359Z,35.53
2022-11-29T13:21:46.475Z,30.65
2022-11-29T13:24:22.973Z,32.15
2022-11-29T13:26:50.149Z,30.88
2022-11-29T13:29:18.332Z,39.97
2022-11-29T13:31:46.803Z,29.48
2022-11-29T13:34:42.929Z,26.98
2022-11-29T13:37:40.554Z,32.88
2022-11-29T13:40:45.703Z,29.50
2022-11-29T13:43:38.826Z,31.20
2022-11-29T13:46:29.282Z,29.92
2022-11-29T13:48:56.184Z,32.45
2022-11-29T13:51:33.529Z,34.58
2022-11-29T13:54:05.881Z,33.17
2022-11-29T13:56:47.723Z,31.60
2022-11-29T13:59:23.581Z,36.65
2022-11-29T14:01:53.747Z,32.47
2022-11-29T14:04:45.240Z,31.52
2022-11-29T14:07:18.456Z,30.90
2022-11-29T14:10:06.853Z,34.70
2022-11-29T14:12:56.620Z,32.47
2022-11-29T14:17:58.364Z,29.10
2022-11-29T14:20:25.189Z,35.40
2022-11-29T14:23:04.289Z,28.38
2022-11-29T14:25:52.582Z,38.70
2022-11-29T14:28:22.132Z,36.00
2022-11-29T14:31:01.900Z,33.95
2022-11-29T14:33:54.275Z,39.33
2022-11-29T14:36:30.227Z,34.05
2022-11-29T14:39:04.964Z,31.25
2022-11-29T14:41:59.614Z,27.10
2022-11-29T14:44:29.368Z,28.27
2022-11-29T14:49:46.916Z,26.17
2022-11-29T14:52:13.546Z,26.92
2022-11-29T14:55:03.149Z,34.85
2022-11-29T14:57:47.775Z,26.20
2022-11-29T15:00:21.209Z,32.83
2022-11-29T15:02:52.056Z,27.27
2022-11-29T15:05:27.934Z,36.83
2022-11-29T15:08:15.120Z,36.80
2022-11-29T15:10:52.041Z,35.55
2022-11-29T15:13:31.700Z,30.48
2022-11-29T15:16:14.174Z,31.77
2022-11-29T15:19:13.231Z,31.58
2022-11-29T15:21:44.928Z,27.25
2022-11-29T15:24:14.755Z,26.98
2022-11-29T15:27:01.566Z,37.85
2022-11-29T15:29:30.616Z,25.25
2022-11-29T15:32:05.262Z,32.83
2022-11-29T15:34:42.952Z,31.23
2022-11-29T15:37:22.487Z,41.92
2022-11-29T15:40:01.447Z,32.28
2022-11-29T15:42:32.542Z,31.33
2022-11-29T15:45:01.901Z,27.77
2022-11-29T15:47:28.619Z,29.40
2022-11-29T15:49:55.573Z,32.83
2022-11-29T15:52:31.526Z,29.48
2022-11-29T15:55:05.561Z,33.67
2022-11-29T15:57:45.731Z,31.33
2022-11-29T16:00:23.129Z,34.10
2022-11-29T16:03:03.532Z,34.92
2022-11-29T16:05:36.936Z,30.85
2022-11-29T16:08:12.422Z,27.08
2022-11-29T16:10:52.893Z,30.42
2022-11-29T16:13:25.783Z,33.70
2022-11-29T16:16:20.090Z,28.65
2022-11-29T16:18:49.899Z,33.67
2022-11-29T16:23:55.362Z,32.92
2022-11-29T16:26:31.357Z,36.63
2022-11-29T16:28:58.503Z,32.88
2022-11-29T16:31:36.760Z,35.03
2022-11-29T16:34:20.066Z,34.35
2022-11-29T16:36:47.227Z,38.38
2022-11-29T16:39:24.032Z,33.72
2022-11-29T16:42:14.643Z,36.15
2022-11-29T16:44:41.683Z,33.60
2022-11-29T16:47:23.444Z,35.35
2022-11-29T16:50:02.132Z,35.22
2022-11-29T16:52:31.853Z,36.38
2022-11-29T16:54:59.107Z,38.83
2022-11-29T16:57:27.446Z,32.47
2022-11-29T16:59:54.335Z,31.27
2022-11-29T17:02:21.051Z,31.60
2022-11-29T17:04:48.317Z,30.35
2022-11-29T17:07:39.268Z,34.17
2022-11-29T17:10:14.567Z,34.75
2022-11-29T17:12:47.988Z,31.48
2022-11-29T17:15:18.310Z,30.90
2022-11-29T17:20:13.421Z,32.92
2022-11-29T17:22:40.610Z,34.72
2022-11-29T17:25:09.171Z,36.80
2022-11-29T17:27:36.412Z,37.67
2022-11-29T17:30:07.248Z,33.83
2022-11-29T17:32:35.647Z,34.17
2022-11-29T17:35:06.196Z,33.15
2022-11-29T17:37:33.213Z,37.80
2022-11-29T17:40:00.349Z,35.85
2022-11-29T17:42:27.039Z,34.45
2022-11-29T17:44:53.827Z,34.65
2022-11-29T17:47:26.338Z,34.97
2022-11-29T17:49:52.933Z,35.65
2022-11-29T17:52:34.531Z,35.00
2022-11-29T17:55:10.898Z,40.47
2022-11-29T17:57:37.649Z,33.72
2022-11-29T18:00:09.234Z,34.13
2022-11-29T18:02:36.218Z,30.00
2022-11-29T18:05:02.880Z,32.10
2022-11-29T18:07:32.060Z,32.58
2022-11-29T18:09:58.814Z,34.58
2022-11-29T18:12:27.503Z,32.55
2022-11-29T18:14:54.254Z,33.88
2022-11-29T18:17:20.784Z,36.75
2022-11-29T18:19:47.671Z,37.58
2022-11-29T18:22:16.340Z,32.80
2022-11-29T18:24:46.064Z,34.72
2022-11-29T18:27:16.076Z,40.55
2022-11-29T18:29:45.263Z,33.70
2022-11-29T18:32:12.153Z,32.60
2022-11-29T18:34:38.935Z,31.25
2022-11-29T18:37:13.988Z,32.20
2022-11-29T18:39:43.331Z,32.85
2022-11-29T18:42:10.779Z,28.85
2022-11-29T18:44:43.496Z,32.47
2022-11-29T18:47:13.022Z,35.92
2022-11-29T18:49:42.531Z,31.17
2022-11-29T18:52:09.184Z,36.17
2022-11-29T18:54:38.422Z,37.55
2022-11-29T18:57:05.110Z,39.90
2022-11-29T18:59:39.993Z,31.20
2022-11-29T19:02:07.037Z,31.30
2022-11-29T19:04:33.728Z,29.63
2022-11-29T19:07:01.462Z,32.58
2022-11-29T19:09:28.442Z,29.15
2022-11-29T19:11:55.223Z,39.45
2022-11-29T19:14:22.089Z,30.60
2022-11-29T19:16:50.179Z,35.47
2022-11-29T19:19:18.995Z,35.88
2022-11-29T19:21:46.646Z,37.63
2022-11-29T19:24:18.204Z,39.95
2022-11-29T19:26:48.384Z,34.72
2022-11-29T19:29:15.594Z,34.58
2022-11-29T19:31:42.872Z,36.35
2022-11-29T19:34:09.777Z,50.40
2022-11-29T19:36:43.056Z,39.92
2022-11-29T19:39:13.347Z,37.50
2022-11-29T19:41:43.011Z,41.85
2022-11-29T19:44:14.819Z,38.72
2022-11-29T19:46:47.007Z,38.13
2022-11-29T19:49:14.323Z,37.75
2022-11-29T19:51:41.552Z,37.58
2022-11-29T19:54:13.453Z,36.63
2022-11-29T19:56:51.942Z,36.42
2022-11-29T19:59:19.211Z,36.78
2022-11-29T20:01:50.836Z,36.47
2022-11-29T20:04:21.133Z,34.70
2022-11-29T20:06:47.942Z,34.05
2022-11-29T20:09:14.788Z,33.13
2022-11-29T20:11:41.541Z,36.53
2022-11-29T20:14:11.150Z,34.75
2022-11-29T20:16:38.937Z,39.30
2022-11-29T20:19:13.835Z,35.03
2022-11-29T20:21:48.875Z,35.53
2022-11-29T20:24:17.567Z,34.22
2022-11-29T20:26:46.239Z,33.08
2022-11-29T20:29:19.505Z,33.83
2022-11-29T20:32:02.685Z,33.88
2022-11-29T20:34:29.532Z,31.75
2022-11-29T20:37:33.532Z,31.80
2022-11-29T20:40:04.666Z,35.78
2022-11-29T20:42:41.415Z,29.55
2022-11-29T20:45:12.102Z,32.00
2022-11-29T20:47:56.138Z,26.30
2022-11-29T20:50:27.052Z,34.97
2022-11-29T20:53:16.702Z,34.80
2022-11-29T20:55:47.970Z,31.05
2022-11-29T20:58:15.993Z,30.08
2022-11-29T21:00:42.627Z,31.27
2022-11-29T21:03:13.347Z,30.13
2022-11-29T21:05:40.465Z,32.22
2022-11-29T21:08:07.548Z,36.38
2022-11-29T21:10:34.450Z,29.15
2022-11-29T21:13:01.620Z,32.35
2022-11-29T21:15:28.734Z,41.20
2022-11-29T21:17:56.605Z,31.10
2022-11-29T21:20:28.854Z,36.88
2022-11-29T21:23:04.946Z,35.47
2022-11-29T21:26:17.502Z,34.33
2022-11-29T21:28:57.474Z,36.65
2022-11-29T21:33:51.446Z,36.70
2022-11-29T21:36:19.369Z,32.22
2022-11-29T21:38:52.346Z,40.33
2022-11-29T21:41:21.685Z,43.25
2022-11-29T21:44:06.587Z,38.75
2022-11-29T21:46:36.841Z,38.53
2022-11-29T21:49:04.689Z,31.77
2022-11-29T21:51:32.024Z,38.38
2022-11-29T21:53:58.724Z,34.88
2022-11-29T21:56:25.471Z,41.05
2022-11-29T21:58:54.484Z,40.10
2022-11-29T22:01:21.806Z,39.38
2022-11-29T22:03:48.465Z,36.08
2022-11-29T22:06:20.899Z,39.75
2022-11-29T22:08:48.360Z,35.90
2022-11-29T22:11:30.673Z,37.92
2022-11-29T22:14:14.460Z,41.75
2022-11-29T22:16:47.218Z,41.67
2022-11-29T22:19:20.067Z,36.33
2022-11-29T22:21:49.688Z,38.83
2022-11-29T22:24:18.775Z,44.90
2022-11-29T22:26:47.022Z,40.00
2022-11-29T22:29:14.936Z,42.10
2022-11-29T22:31:46.876Z,44.72
2022-11-29T22:34:14.333Z,40.45
2022-11-29T22:36:41.266Z,40.60
2022-11-29T22:39:08.907Z,47.78
2022-11-29T22:41:37.210Z,43.63
2022-11-29T22:44:05.175Z,42.80
2022-11-29T22:46:32.423Z,41.15
2022-11-29T22:49:00.730Z,41.53
2022-11-29T22:51:32.934Z,39.83
2022-11-29T22:54:01.536Z,41.08
2022-11-29T22:56:31.118Z,39.33
2022-11-29T22:58:58.418Z,43.20
2022-11-29T23:01:27.802Z,41.53
2022-11-29T23:03:58.619Z,47.80
2022-11-29T23:06:28.268Z,44.28
2022-11-29T23:11:26.658Z,40.15
2022-11-29T23:13:54.214Z,45.00
2022-11-29T23:16:26.720Z,44.28
2022-11-29T23:18:54.834Z,48.42
2022-11-29T23:21:24.235Z,42.47
2022-11-29T23:23:56.036Z,42.88
2022-11-29T23:26:26.452Z,46.17
2022-11-29T23:31:22.103Z,43.63
2022-11-29T23:33:49.265Z,44.13
2022-11-29T23:36:16.328Z,40.28
2022-11-29T23:38:45.796Z,41.03
2022-11-29T23:41:13.145Z,46.08
2022-11-29T23:43:41.151Z,39.25
2022-11-29T23:46:16.761Z,48.45
2022-11-29T23:48:43.541Z,51.53
2022-11-29T23:51:11.066Z,46.53
2022-11-29T23:53:39.399Z,42.70
2022-11-29T23:56:09.972Z,44.88
2022-11-29T23:58:36.863Z,44.85
